Lapeer, Michigan
Current Conditions -  °F | °C
As of 2:14 AM on Wednesday 22 Oct 2014 (Local Time) from KD95 Reporting Station
Overcast Overcast  
Wind Chill: 39°   Ceiling: 1900
Heat Index: 43°   Visibility: 10mi
Dew Point: 37°   Wind: 6mph
Humidity: 81%   Direction: 360°N
Pressure: 30.23"   Gusts: NA
Location:  43.05°N, 83.31°W
Report Text: KD95 220614Z AUTO 36005KT 10SM OVC019 06/03 A3023 RMK AO2 T00610030
Loading
Personal Weather Stations






























Interactive Weather Map
Tropical Storm Tracking
New forecast layout! Learn more

10-Day Weather Forecast

Advertisements
Track Severe Weather on mobile